createdAt,value
2018-02-05T00:00:07.861Z,46.77
2018-02-05T00:02:36.914Z,49.70
2018-02-05T00:05:05.176Z,53.00
2018-02-05T00:07:33.474Z,53.67
2018-02-05T00:10:02.567Z,52.33
2018-02-05T00:12:30.829Z,53.30
2018-02-05T00:14:59.235Z,55.70
2018-02-05T00:17:28.275Z,56.93
2018-02-05T00:19:56.554Z,59.77
2018-02-05T00:22:24.839Z,54.77
2018-02-05T00:24:53.094Z,50.60
2018-02-05T00:27:21.484Z,57.00
2018-02-05T00:29:49.779Z,50.73
2018-02-05T00:32:18.058Z,54.10
2018-02-05T00:34:46.326Z,60.93
2018-02-05T00:37:14.610Z,50.90
2018-02-05T00:39:42.858Z,58.23
2018-02-05T00:42:11.133Z,60.83
2018-02-05T00:44:39.410Z,58.03
2018-02-05T00:47:07.785Z,60.77
2018-02-05T00:49:36.066Z,55.40
2018-02-05T00:52:04.339Z,56.27
2018-02-05T00:54:32.595Z,61.40
2018-02-05T00:57:00.916Z,58.00
2018-02-05T00:59:29.171Z,57.97
2018-02-05T01:01:57.460Z,58.83
2018-02-05T01:04:25.770Z,57.93
2018-02-05T01:06:54.098Z,60.73
2018-02-05T01:09:22.384Z,58.47
2018-02-05T01:11:50.911Z,55.27
2018-02-05T01:14:19.113Z,54.30
2018-02-05T01:16:47.561Z,53.90
2018-02-05T01:19:16.611Z,51.43
2018-02-05T01:21:44.888Z,56.63
2018-02-05T01:24:13.172Z,57.63
2018-02-05T01:26:41.458Z,50.70
2018-02-05T01:29:09.745Z,55.57
2018-02-05T01:31:38.754Z,53.40
2018-02-05T01:34:07.045Z,56.43
2018-02-05T01:36:35.533Z,56.87
2018-02-05T01:39:04.534Z,57.83
2018-02-05T01:41:32.800Z,54.40
2018-02-05T01:44:01.134Z,58.30
2018-02-05T01:46:29.385Z,56.63
2018-02-05T01:48:57.704Z,57.70
2018-02-05T01:51:26.014Z,53.60
2018-02-05T01:53:54.373Z,54.17
2018-02-05T01:56:23.406Z,57.17
2018-02-05T01:58:51.726Z,54.00
2018-02-05T02:01:20.095Z,58.50
2018-02-05T02:03:48.386Z,53.30
2018-02-05T02:06:16.826Z,57.70
2018-02-05T02:08:45.096Z,58.93
2018-02-05T02:11:13.393Z,58.07
2018-02-05T02:13:42.525Z,58.60
2018-02-05T02:16:10.767Z,56.87
2018-02-05T02:18:39.828Z,54.53
2018-02-05T02:21:08.158Z,57.27
2018-02-05T02:23:36.436Z,53.40
2018-02-05T02:26:04.737Z,57.60
2018-02-05T02:28:33.097Z,56.27
2018-02-05T02:31:01.466Z,55.17
2018-02-05T02:33:29.727Z,51.47
2018-02-05T02:35:57.991Z,49.43
2018-02-05T02:38:27.114Z,51.97
2018-02-05T02:40:55.418Z,51.47
2018-02-05T02:43:23.698Z,50.43
2018-02-05T02:45:52.098Z,43.83
2018-02-05T02:48:21.151Z,48.70
2018-02-05T02:50:49.406Z,47.43
2018-02-05T02:53:17.685Z,50.90
2018-02-05T02:55:45.933Z,48.90
2018-02-05T02:58:14.246Z,47.13
2018-02-05T03:00:42.542Z,45.37
2018-02-05T03:03:10.805Z,40.83
2018-02-05T03:05:39.079Z,46.37
2018-02-05T03:08:07.367Z,46.87
2018-02-05T03:10:35.639Z,42.07
2018-02-05T03:13:03.884Z,46.63
2018-02-05T03:15:32.194Z,49.63
2018-02-05T03:18:00.463Z,45.07
2018-02-05T03:20:28.975Z,46.53
2018-02-05T03:22:58.041Z,51.07
2018-02-05T03:25:26.298Z,44.40
2018-02-05T03:27:54.573Z,45.27
2018-02-05T03:30:22.856Z,45.10
2018-02-05T03:32:51.156Z,42.23
2018-02-05T03:35:20.941Z,43.43
2018-02-05T03:37:49.355Z,44.13
2018-02-05T03:40:18.578Z,41.37
2018-02-05T03:42:46.864Z,41.50
2018-02-05T03:45:15.135Z,39.50
2018-02-05T03:47:43.411Z,42.60
2018-02-05T03:50:11.902Z,41.90
2018-02-05T03:52:40.179Z,40.43
2018-02-05T03:55:08.470Z,39.10
2018-02-05T03:57:36.758Z,42.40
2018-02-05T04:00:05.452Z,41.97
2018-02-05T04:02:33.695Z,37.13
2018-02-05T04:05:01.988Z,36.57
2018-02-05T04:07:30.262Z,39.67
2018-02-05T04:09:58.514Z,40.27
2018-02-05T04:12:26.880Z,36.03
2018-02-05T04:14:55.145Z,39.27
2018-02-05T04:17:23.425Z,38.60
2018-02-05T04:19:51.694Z,38.87
2018-02-05T04:22:19.974Z,38.23
2018-02-05T04:24:48.222Z,38.70
2018-02-05T04:27:16.534Z,39.27
2018-02-05T04:29:44.791Z,40.23
2018-02-05T04:32:13.067Z,42.43
2018-02-05T04:34:42.399Z,35.23
2018-02-05T04:37:10.694Z,38.13
2018-02-05T04:39:39.776Z,39.43
2018-02-05T04:42:08.059Z,37.13
2018-02-05T04:44:36.355Z,39.83
2018-02-05T04:47:05.387Z,36.07
2018-02-05T04:49:33.664Z,39.53
2018-02-05T04:52:01.920Z,33.93
2018-02-05T04:54:30.199Z,38.13
2018-02-05T04:56:58.555Z,41.93
2018-02-05T04:59:27.616Z,37.47
2018-02-05T05:01:55.874Z,37.73
2018-02-05T05:04:24.145Z,37.27
2018-02-05T05:06:52.601Z,38.90
2018-02-05T05:09:21.097Z,39.53
2018-02-05T05:11:49.342Z,31.50
2018-02-05T05:14:17.620Z,35.40
2018-02-05T05:16:46.641Z,33.00
2018-02-05T05:19:14.884Z,32.63
2018-02-05T05:21:43.165Z,35.30
2018-02-05T05:24:11.435Z,39.70
2018-02-05T05:26:39.711Z,37.07
2018-02-05T05:29:07.995Z,32.77
2018-02-05T05:31:36.256Z,35.63
2018-02-05T05:34:04.540Z,36.67
2018-02-05T05:36:33.569Z,33.63
2018-02-05T05:39:01.880Z,37.80
2018-02-05T05:41:30.150Z,34.27
2018-02-05T05:43:59.223Z,34.13
2018-02-05T05:46:27.595Z,31.67
2018-02-05T05:48:55.868Z,31.77
2018-02-05T05:51:24.146Z,30.53
2018-02-05T05:53:52.453Z,30.33
2018-02-05T05:56:20.856Z,29.80
2018-02-05T05:58:49.129Z,31.47
2018-02-05T06:01:17.379Z,34.30
2018-02-05T06:03:46.426Z,30.00
2018-02-05T06:06:14.790Z,30.50
2018-02-05T06:08:43.086Z,30.40
2018-02-05T06:11:11.326Z,31.20
2018-02-05T06:13:41.492Z,34.20
2018-02-05T06:16:09.747Z,28.23
2018-02-05T06:18:38.075Z,31.83
2018-02-05T06:21:06.326Z,30.67
2018-02-05T06:23:34.615Z,29.03
2018-02-05T06:26:02.914Z,28.90
2018-02-05T06:28:31.182Z,33.90
2018-02-05T06:31:00.367Z,33.17
2018-02-05T06:33:29.412Z,31.93
2018-02-05T06:35:57.670Z,28.67
2018-02-05T06:38:25.964Z,31.70
2018-02-05T06:40:54.244Z,29.40
2018-02-05T06:43:22.515Z,27.33
2018-02-05T06:45:51.630Z,28.97
2018-02-05T06:48:19.887Z,26.93
2018-02-05T06:51:00.099Z,32.30
2018-02-05T06:53:40.962Z,31.07
2018-02-05T06:56:10.989Z,33.97
2018-02-05T06:58:39.248Z,28.60
2018-02-05T07:01:08.295Z,29.07
2018-02-05T07:03:36.574Z,31.60
2018-02-05T07:06:04.861Z,29.83
2018-02-05T07:08:33.129Z,28.07
2018-02-05T07:11:01.406Z,29.33
2018-02-05T07:13:29.718Z,27.67
2018-02-05T07:15:59.004Z,28.60
2018-02-05T07:18:27.651Z,30.20
2018-02-05T07:20:55.908Z,30.90
2018-02-05T07:23:24.195Z,30.47
2018-02-05T07:25:52.498Z,31.20
2018-02-05T07:28:20.771Z,28.10
2018-02-05T07:30:49.068Z,26.03
2018-02-05T07:33:17.318Z,26.17
2018-02-05T07:35:46.414Z,28.17
2018-02-05T07:38:14.693Z,28.27
2018-02-05T07:40:42.963Z,26.90
2018-02-05T07:43:11.275Z,28.20
2018-02-05T07:45:39.734Z,24.70
2018-02-05T07:48:08.030Z,28.77
2018-02-05T07:50:37.092Z,29.83
2018-02-05T07:53:05.511Z,25.93
2018-02-05T07:55:33.816Z,22.40
2018-02-05T07:58:04.094Z,29.70
2018-02-05T08:00:33.162Z,27.63
2018-02-05T08:03:01.434Z,26.67
2018-02-05T08:05:29.703Z,25.93
2018-02-05T08:07:57.990Z,25.47
2018-02-05T08:10:26.259Z,27.77
2018-02-05T08:12:54.589Z,23.63
2018-02-05T08:15:22.842Z,22.27
2018-02-05T08:17:51.178Z,24.00
2018-02-05T08:20:19.482Z,22.37
2018-02-05T08:22:47.734Z,21.53
2018-02-05T08:25:16.821Z,22.55
2018-02-05T08:27:45.115Z,22.47
2018-02-05T08:30:14.192Z,23.23
2018-02-05T08:32:42.439Z,21.97
2018-02-05T08:35:10.776Z,20.90
2018-02-05T08:37:39.840Z,22.53
2018-02-05T08:40:08.178Z,19.40
2018-02-05T08:42:37.694Z,19.97
2018-02-05T08:45:06.044Z,21.03
2018-02-05T08:47:34.300Z,20.77
2018-02-05T08:50:03.322Z,19.27
2018-02-05T08:52:31.721Z,21.23
2018-02-05T08:55:00.031Z,19.07
2018-02-05T08:57:28.318Z,22.60
2018-02-05T08:59:57.370Z,18.53
2018-02-05T09:02:25.624Z,17.27
2018-02-05T09:04:53.897Z,18.53
2018-02-05T09:07:22.176Z,19.87
2018-02-05T09:09:50.541Z,18.73
2018-02-05T09:12:18.802Z,17.47
2018-02-05T09:14:47.068Z,21.33
2018-02-05T09:17:16.105Z,16.73
2018-02-05T09:19:44.367Z,18.93
2018-02-05T09:22:12.680Z,17.07
2018-02-05T09:24:40.939Z,16.80
2018-02-05T09:27:09.272Z,17.93
2018-02-05T09:29:37.555Z,17.40
2018-02-05T09:32:05.798Z,17.30
2018-02-05T09:34:34.880Z,17.57
2018-02-05T09:37:03.971Z,18.20
2018-02-05T09:39:32.457Z,14.07
2018-02-05T09:42:00.838Z,15.33
2018-02-05T09:44:29.878Z,14.83
2018-02-05T09:46:58.145Z,17.63
2018-02-05T09:49:26.436Z,15.40
2018-02-05T09:51:54.715Z,16.30
2018-02-05T09:54:22.990Z,16.17
2018-02-05T09:56:51.279Z,13.80
2018-02-05T09:59:19.521Z,16.40
2018-02-05T10:01:47.801Z,11.73
2018-02-05T10:04:16.074Z,14.17
2018-02-05T10:06:45.074Z,13.10
2018-02-05T10:09:13.478Z,13.60
2018-02-05T10:11:41.770Z,16.27
2018-02-05T10:14:10.014Z,17.13
2018-02-05T10:16:38.277Z,15.67
2018-02-05T10:19:06.518Z,13.50
2018-02-05T10:21:35.542Z,15.07
2018-02-05T10:24:03.910Z,14.00
2018-02-05T10:26:32.166Z,12.67
2018-02-05T10:29:00.492Z,12.63
2018-02-05T10:31:28.787Z,13.93
2018-02-05T10:33:57.026Z,13.57
2018-02-05T10:36:25.303Z,12.43
2018-02-05T10:38:53.559Z,14.80
2018-02-05T10:41:21.806Z,12.97
2018-02-05T10:43:50.791Z,10.80
2018-02-05T10:46:19.058Z,12.87
2018-02-05T10:48:47.430Z,14.60
2018-02-05T10:51:15.655Z,13.67
2018-02-05T10:53:44.085Z,12.83
2018-02-05T10:56:12.345Z,10.90
2018-02-05T10:58:40.700Z,11.97
2018-02-05T11:01:08.951Z,13.10
2018-02-05T11:03:37.277Z,10.93
2018-02-05T11:06:05.522Z,12.57
2018-02-05T11:08:33.784Z,13.80
2018-02-05T11:11:02.166Z,12.87
2018-02-05T11:13:30.404Z,13.73
2018-02-05T11:15:58.689Z,12.73
2018-02-05T11:18:27.713Z,10.80
2018-02-05T11:20:56.009Z,12.47
2018-02-05T11:23:24.272Z,12.07
2018-02-05T11:25:52.608Z,16.17
2018-02-05T11:28:21.628Z,15.67
2018-02-05T11:30:49.895Z,12.37
2018-02-05T11:33:18.135Z,14.13
2018-02-05T11:35:46.441Z,14.23
2018-02-05T11:38:14.734Z,13.47
2018-02-05T11:40:43.050Z,14.03
2018-02-05T11:43:11.277Z,12.13
2018-02-05T11:45:39.535Z,13.90
2018-02-05T11:48:07.774Z,12.37
2018-02-05T11:50:36.069Z,14.23
2018-02-05T11:53:05.086Z,11.73
2018-02-05T11:55:33.321Z,11.63
2018-02-05T11:58:01.591Z,11.70
2018-02-05T12:00:29.821Z,12.73
2018-02-05T12:02:58.081Z,30.03
2018-02-05T12:05:26.339Z,12.00
2018-02-05T12:07:54.627Z,11.80
2018-02-05T12:10:22.877Z,13.33
2018-02-05T12:12:52.010Z,13.00
2018-02-05T12:15:20.442Z,10.67
2018-02-05T12:17:48.681Z,11.50
2018-02-05T12:20:16.986Z,14.50
2018-02-05T12:22:45.323Z,12.60
2018-02-05T12:25:13.596Z,11.10
2018-02-05T12:27:41.883Z,12.57
2018-02-05T12:30:10.160Z,10.60
2018-02-05T12:32:38.402Z,12.60
2018-02-05T12:35:06.674Z,11.93
2018-02-05T12:37:35.014Z,13.67
2018-02-05T12:40:03.265Z,10.03
2018-02-05T12:42:31.523Z,12.80
2018-02-05T12:44:59.832Z,9.67
2018-02-05T12:47:28.087Z,15.33
2018-02-05T12:49:56.334Z,12.07
2018-02-05T12:52:24.585Z,13.03
2018-02-05T12:54:52.840Z,11.67
2018-02-05T12:57:21.882Z,10.23
2018-02-05T12:59:50.255Z,10.97
2018-02-05T13:02:18.508Z,10.57
2018-02-05T13:04:46.786Z,13.10
2018-02-05T13:07:15.185Z,12.37
2018-02-05T13:09:43.441Z,13.80
2018-02-05T13:12:11.730Z,12.60
2018-02-05T13:14:40.027Z,11.00
2018-02-05T13:17:08.300Z,9.90
2018-02-05T13:19:36.571Z,12.40
2018-02-05T13:22:04.883Z,10.17
2018-02-05T13:24:34.141Z,9.90
2018-02-05T13:27:02.561Z,10.07
2018-02-05T13:29:30.827Z,10.83
2018-02-05T13:31:59.073Z,11.73
2018-02-05T13:34:27.451Z,8.97
2018-02-05T13:36:55.730Z,10.73
2018-02-05T13:39:24.093Z,10.33
2018-02-05T13:41:52.355Z,9.87
2018-02-05T13:44:20.605Z,10.07
2018-02-05T13:46:49.637Z,9.07
2018-02-05T13:49:17.918Z,8.37
2018-02-05T13:51:46.191Z,8.57
2018-02-05T13:54:14.496Z,10.57
2018-02-05T13:56:43.521Z,12.00
2018-02-05T13:59:12.551Z,12.43
2018-02-05T14:01:40.819Z,8.13
2018-02-05T14:04:09.129Z,10.43
2018-02-05T14:06:37.390Z,7.73
2018-02-05T14:09:05.635Z,7.90
2018-02-05T14:11:33.897Z,8.03
2018-02-05T14:14:02.171Z,9.07
2018-02-05T14:16:30.430Z,8.10
2018-02-05T14:18:58.789Z,10.33
2018-02-05T14:21:27.094Z,11.87
2018-02-05T14:23:55.415Z,9.30
2018-02-05T14:26:23.712Z,10.53
2018-02-05T14:28:51.954Z,8.77
2018-02-05T14:31:20.237Z,10.60
2018-02-05T14:33:48.482Z,7.83
2018-02-05T14:36:16.749Z,9.30
2018-02-05T14:38:45.769Z,8.37
2018-02-05T14:41:14.003Z,8.73
2018-02-05T14:43:43.034Z,8.90
2018-02-05T14:46:11.288Z,9.83
2018-02-05T14:48:40.302Z,9.43
2018-02-05T14:51:08.547Z,9.13
2018-02-05T14:53:36.850Z,9.57
2018-02-05T14:56:05.214Z,9.57
2018-02-05T14:58:33.507Z,12.13
2018-02-05T15:01:01.765Z,11.70
2018-02-05T15:03:30.097Z,15.00
2018-02-05T15:05:58.333Z,12.13
2018-02-05T15:08:26.599Z,11.93
2018-02-05T15:10:54.866Z,11.63
2018-02-05T15:13:23.345Z,11.27
2018-02-05T15:15:51.602Z,12.83
2018-02-05T15:18:19.863Z,12.57
2018-02-05T15:20:48.159Z,12.77
2018-02-05T15:23:16.415Z,12.77
2018-02-05T15:25:45.465Z,13.77
2018-02-05T15:28:13.724Z,17.00
2018-02-05T15:30:42.139Z,15.20
2018-02-05T15:33:11.383Z,16.27
2018-02-05T15:35:39.806Z,17.10
2018-02-05T15:38:09.613Z,15.87
2018-02-05T15:40:37.856Z,17.17
2018-02-05T15:43:06.108Z,20.30
2018-02-05T15:45:34.374Z,15.00
2018-02-05T15:48:02.787Z,15.53
2018-02-05T15:50:31.058Z,15.57
2018-02-05T15:52:59.356Z,15.20
2018-02-05T15:55:27.615Z,16.37
2018-02-05T15:57:56.002Z,14.90
2018-02-05T16:00:24.246Z,16.67
2018-02-05T16:02:52.535Z,16.20
2018-02-05T16:05:20.828Z,18.17
2018-02-05T16:07:49.182Z,15.60
2018-02-05T16:10:17.418Z,17.13
2018-02-05T16:12:46.456Z,15.97
2018-02-05T16:15:14.806Z,16.33
2018-02-05T16:17:43.107Z,16.27
2018-02-05T16:20:11.459Z,17.40
2018-02-05T16:22:39.754Z,14.77
2018-02-05T16:25:08.038Z,19.47
2018-02-05T16:27:36.294Z,17.13
2018-02-05T16:30:04.559Z,16.17
2018-02-05T16:32:33.753Z,16.97
2018-02-05T16:35:02.035Z,14.10
2018-02-05T16:37:30.275Z,18.13
2018-02-05T16:39:59.334Z,16.87
2018-02-05T16:42:27.665Z,17.93
2018-02-05T16:44:56.759Z,18.40
2018-02-05T16:47:25.973Z,17.97
2018-02-05T16:49:54.293Z,15.90
2018-02-05T16:52:22.606Z,15.37
2018-02-05T16:54:51.646Z,17.00
2018-02-05T16:57:19.961Z,18.27
2018-02-05T16:59:48.983Z,23.57
2018-02-05T17:02:17.378Z,20.87
2018-02-05T17:04:45.780Z,22.07
2018-02-05T17:07:14.190Z,19.17
2018-02-05T17:09:43.237Z,19.17
2018-02-05T17:12:11.560Z,20.47
2018-02-05T17:14:40.790Z,22.00
2018-02-05T17:17:09.051Z,21.23
2018-02-05T17:19:37.309Z,22.13
2018-02-05T17:22:05.596Z,24.10
2018-02-05T17:24:33.907Z,21.00
2018-02-05T17:27:02.210Z,18.87
2018-02-05T17:29:30.543Z,23.00
2018-02-05T17:31:58.867Z,22.30
2018-02-05T17:34:27.126Z,21.47
2018-02-05T17:36:55.494Z,19.00
2018-02-05T17:39:23.782Z,19.90
2018-02-05T17:41:52.038Z,22.53
2018-02-05T17:44:20.333Z,26.90
2018-02-05T17:46:48.581Z,22.53
2018-02-05T17:49:17.343Z,21.73
2018-02-05T17:51:46.370Z,20.73
2018-02-05T17:54:14.702Z,21.63
2018-02-05T17:56:43.723Z,20.43
2018-02-05T17:59:12.028Z,21.17
2018-02-05T18:01:40.289Z,21.20
2018-02-05T18:04:08.564Z,21.70
2018-02-05T18:06:36.848Z,22.03
2018-02-05T18:09:05.158Z,20.63
2018-02-05T18:11:34.370Z,18.17
2018-02-05T18:14:02.691Z,22.43
2018-02-05T18:16:31.001Z,20.40
2018-02-05T18:19:00.219Z,20.80
2018-02-05T18:21:28.499Z,22.53
2018-02-05T18:23:56.942Z,21.70
2018-02-05T18:26:27.662Z,20.67
2018-02-05T18:28:55.932Z,22.23
2018-02-05T18:31:24.198Z,23.37
2018-02-05T18:33:52.727Z,19.27
2018-02-05T18:36:21.778Z,22.03
2018-02-05T18:38:50.044Z,20.57
2018-02-05T18:41:18.408Z,27.13
2018-02-05T18:43:46.711Z,24.73
2018-02-05T18:46:15.012Z,24.57
2018-02-05T18:48:43.276Z,22.53
2018-02-05T18:51:11.735Z,24.13
2018-02-05T18:53:41.425Z,24.50
2018-02-05T18:56:09.706Z,23.90
2018-02-05T18:58:38.006Z,23.27
2018-02-05T19:01:06.290Z,22.67
2018-02-05T19:03:35.363Z,22.27
2018-02-05T19:06:03.654Z,22.47
2018-02-05T19:08:31.918Z,21.63
2018-02-05T19:11:00.204Z,20.10
2018-02-05T19:13:29.264Z,20.20
2018-02-05T19:15:57.561Z,24.30
2018-02-05T19:18:25.846Z,22.60
2018-02-05T19:20:54.135Z,21.27
2018-02-05T19:23:22.435Z,22.83
2018-02-05T19:25:50.713Z,26.47
2018-02-05T19:28:19.004Z,23.40
2018-02-05T19:30:47.428Z,22.73
2018-02-05T19:33:15.727Z,22.80
2018-02-05T19:35:43.998Z,22.23
2018-02-05T19:38:12.318Z,22.50
2018-02-05T19:40:40.667Z,24.50
2018-02-05T19:43:08.932Z,25.87
2018-02-05T19:45:37.223Z,23.87
2018-02-05T19:48:05.499Z,22.13
2018-02-05T19:50:33.798Z,24.20
2018-02-05T19:53:02.078Z,27.87
2018-02-05T19:55:30.406Z,23.30
2018-02-05T19:57:58.903Z,24.97
2018-02-05T20:00:27.211Z,23.30
2018-02-05T20:02:55.502Z,22.27
2018-02-05T20:05:23.795Z,26.90
2018-02-05T20:07:52.097Z,23.47
2018-02-05T20:10:20.621Z,25.93
2018-02-05T20:12:48.884Z,27.43
2018-02-05T20:15:17.182Z,28.27
2018-02-05T20:17:45.446Z,26.23
2018-02-05T20:20:13.819Z,24.70
2018-02-05T20:22:42.100Z,29.37
2018-02-05T20:25:10.394Z,26.90
2018-02-05T20:27:38.682Z,28.60
2018-02-05T20:30:07.755Z,27.83
2018-02-05T20:32:36.073Z,25.47
2018-02-05T20:35:04.386Z,29.27
2018-02-05T20:37:32.699Z,25.17
2018-02-05T20:40:00.948Z,28.03
2018-02-05T20:42:29.258Z,27.87
2018-02-05T20:44:57.682Z,28.43
2018-02-05T20:47:26.120Z,27.03
2018-02-05T20:49:55.169Z,26.30
2018-02-05T20:52:23.449Z,30.33
2018-02-05T20:54:51.721Z,29.53
2018-02-05T20:57:19.970Z,33.87
2018-02-05T20:59:48.221Z,32.93
2018-02-05T21:02:16.526Z,32.17
2018-02-05T21:04:44.764Z,28.33
2018-02-05T21:07:13.035Z,28.57
2018-02-05T21:09:41.375Z,30.57
2018-02-05T21:12:11.198Z,26.70
2018-02-05T21:14:40.255Z,27.17
2018-02-05T21:17:08.534Z,28.00
2018-02-05T21:19:36.791Z,28.83
2018-02-05T21:22:05.074Z,29.90
2018-02-05T21:24:33.368Z,29.43
2018-02-05T21:27:01.607Z,32.60
2018-02-05T21:29:29.898Z,31.77
2018-02-05T21:31:58.190Z,30.83
2018-02-05T21:34:26.505Z,29.40
2018-02-05T21:36:55.624Z,31.37
2018-02-05T21:39:23.938Z,28.73
2018-02-05T21:41:52.197Z,31.33
2018-02-05T21:44:22.286Z,30.20
2018-02-05T21:46:50.582Z,29.20
2018-02-05T21:49:18.847Z,29.20
2018-02-05T21:51:47.135Z,28.00
2018-02-05T21:54:15.423Z,26.83
2018-02-05T21:56:43.691Z,32.93
2018-02-05T21:59:11.985Z,30.17
2018-02-05T22:01:40.287Z,33.70
2018-02-05T22:04:08.554Z,31.63
2018-02-05T22:06:36.839Z,28.97
2018-02-05T22:09:05.866Z,30.83
2018-02-05T22:11:34.167Z,30.70
2018-02-05T22:14:02.436Z,32.67
2018-02-05T22:16:30.705Z,31.23
2018-02-05T22:18:58.990Z,33.73
2018-02-05T22:21:27.294Z,31.17
2018-02-05T22:23:55.667Z,31.97
2018-02-05T22:26:25.083Z,27.53
2018-02-05T22:28:53.366Z,32.20
2018-02-05T22:31:22.407Z,31.40
2018-02-05T22:33:50.695Z,35.00
2018-02-05T22:36:19.097Z,30.27
2018-02-05T22:38:47.429Z,34.17
2018-02-05T22:41:15.675Z,32.50
2018-02-05T22:43:43.956Z,30.27
2018-02-05T22:46:12.253Z,33.70
2018-02-05T22:48:40.531Z,38.57
2018-02-05T22:51:08.790Z,30.70
2018-02-05T22:53:37.113Z,31.73
2018-02-05T22:56:05.374Z,34.57
2018-02-05T22:58:33.637Z,33.43
2018-02-05T23:01:01.935Z,31.33
2018-02-05T23:03:30.222Z,34.93
2018-02-05T23:05:58.503Z,31.27
2018-02-05T23:08:26.750Z,35.47
2018-02-05T23:10:55.081Z,34.40
2018-02-05T23:13:23.339Z,33.80
2018-02-05T23:15:52.462Z,36.90
2018-02-05T23:18:20.736Z,40.30
2018-02-05T23:20:49.128Z,42.97
2018-02-05T23:23:17.399Z,38.57
2018-02-05T23:25:45.669Z,37.00
2018-02-05T23:28:13.909Z,40.90
2018-02-05T23:30:42.944Z,36.20
2018-02-05T23:33:11.265Z,35.20
2018-02-05T23:35:40.303Z,33.77
2018-02-05T23:38:08.544Z,33.83
2018-02-05T23:40:37.598Z,38.63
2018-02-05T23:43:05.840Z,34.73
2018-02-05T23:45:34.191Z,33.40
2018-02-05T23:48:02.434Z,34.27
2018-02-05T23:50:30.708Z,37.20
2018-02-05T23:52:59.024Z,35.07
2018-02-05T23:55:28.044Z,35.20
2018-02-05T23:57:56.327Z,33.73
